Data for 12/10/2013

Time Sea-Level Adjusted Pressure Absolute Pressure Temperature Relative Humidity Dew Point   
(mb) (inHg) (mb) (inHg) (C) (F) (%) (C) (F)
00:05 1018 30.06 848 25.04 -6.6 20.1 62 -12.7 9.2
00:10 1018 30.06 848 25.04 -6.5 20.3 62 -12.6 9.4
00:15 1018 30.06 847 25.01 -6.6 20.1 63 -12.6 9.3
00:20 1018 30.06 847 25.01 -6.7 20 63 -12.5 9.4
00:25 1018 30.06 847 25.01 -6.7 20 62 -12.8 8.9
00:30 1018 30.06 847 25.01 -6.6 20.1 64 -12.4 9.7
00:35 1018 30.06 847 25.01 -6.8 19.8 65 -12.4 9.7
00:40 1018 30.06 847 25.01 -7 19.5 65 -12.5 9.4
00:45 1018 30.06 847 25.01 -7.1 19.3 65 -12.6 9.3
00:50 1018 30.06 847 25.01 -7.1 19.2 65 -12.7 9.2
00:55 1018 30.06 847 25.01 -6.9 19.7 62 -12.9 8.8
01:00 1018 30.06 847 25.01 -6.7 19.9 64 -12.4 9.7
01:05 1018 30.06 847 25.01 -7 19.4 64 -12.6 9.3
01:10 1018 30.06 847 25.01 -7 19.4 65 -12.5 9.5
01:15 1018 30.06 847 25.01 -6.8 19.8 64 -12.4 9.6
01:20 1018 30.06 847 25.01 -6.7 20 64 -12.4 9.7
01:25 1018 30.06 847 25.01 -6.6 20.1 63 -12.6 9.4
01:30 1018 30.06 847 25.01 -6.4 20.5 63 -12.4 9.7
01:35 1018 30.06 847 25.01 -6.2 20.9 62 -12.3 9.9
01:40 1018 30.06 847 25.01 -6.2 20.9 62 -12.4 9.8
01:45 1018 30.06 847 25.01 -6.2 20.8 63 -12.3 9.9
01:50 1018 30.06 847 25.01 -6.3 20.6 63 -12.3 9.9
01:55 1018 30.06 847 25.01 -6.4 20.4 63 -12.4 9.6
02:00 1018 30.06 847 25.01 -6.5 20.2 64 -12.3 9.8
02:05 1018 30.06 847 25.01 -6.4 20.5 62 -12.4 9.6
02:10 1018 30.06 847 25.01 -6.3 20.6 62 -12.4 9.7
02:15 1017 30.03 847 25.01 -6.4 20.4 63 -12.3 9.8
02:20 1017 30.03 846 24.98 -6.5 20.3 62 -12.6 9.3
02:25 1017 30.03 846 24.98 -6.5 20.3 62 -12.6 9.4
02:30 1017 30.03 846 24.98 -6.6 20 62 -12.7 9.1
02:35 1017 30.03 846 24.98 -6.8 19.8 62 -13 8.6
02:40 1017 30.03 846 24.98 -6.9 19.6 62 -13.1 8.5
02:45 1017 30.03 846 24.98 -7.1 19.2 63 -12.9 8.7
02:50 1017 30.03 846 24.98 -7.1 19.2 63 -13.1 8.5
02:55 1017 30.03 846 24.98 -7 19.4 63 -12.9 8.8
03:00 1017 30.03 846 24.98 -7.1 19.1 63 -13 8.6
03:05 1017 30.03 846 24.98 -7.4 18.6 65 -12.9 8.8
03:10 1017 30.03 846 24.98 -7.4 18.7 65 -12.9 8.8
03:15 1017 30.03 846 24.98 -7.4 18.7 65 -12.9 8.9
03:20 1017 30.03 846 24.98 -7.4 18.7 67 -12.5 9.5
03:25 1017 30.03 846 24.98 -7.4 18.7 68 -12.3 9.9
03:30 1017 30.03 846 24.98 -7.3 18.8 69 -12.2 10.1
03:35 1017 30.03 846 24.98 -7.4 18.7 68 -12.2 10
03:40 1017 30.03 846 24.98 -7.4 18.7 70 -12 10.4
03:45 1017 30.03 846 24.98 -7.4 18.7 69 -12.1 10.2
03:50 1017 30.03 846 24.98 -7.4 18.7 67 -12.6 9.4
03:55 1017 30.03 846 24.98 -7.4 18.6 65 -12.9 8.7
04:00 1017 30.03 846 24.98 -7.4 18.8 65 -12.8 9
04:05 1017 30.03 846 24.98 -7.3 18.9 64 -13 8.6
04:10 1017 30.03 846 24.98 -7.1 19.2 64 -12.8 9
04:15 1017 30.03 846 24.98 -7 19.4 62 -13.1 8.4
04:20 1016 30 846 24.98 -6.9 19.6 64 -12.7 9.2
04:25 1016 30 846 24.98 -6.8 19.7 63 -12.7 9.2
04:30 1016 30 846 24.98 -6.8 19.8 62 -12.9 8.7
04:35 1016 30 845 24.95 -6.8 19.8 62 -12.9 8.7
04:40 1016 30 845 24.95 -6.9 19.6 62 -13 8.6
04:45 1016 30 845 24.95 -6.9 19.6 61 -13.1 8.4
04:50 1016 30 845 24.95 -6.8 19.8 61 -13.1 8.4
04:55 1016 30 845 24.95 -6.7 19.9 61 -13.1 8.5
05:00 1016 30 845 24.95 -6.8 19.8 61 -13 8.6
05:05 1016 30 845 24.95 -6.9 19.5 63 -13 8.7
05:10 1016 30 845 24.95 -7.1 19.3 63 -13 8.7
05:15 1016 30 845 24.95 -7.1 19.2 65 -12.6 9.3
05:20 1016 30 845 24.95 -7.2 19 67 -12.4 9.6
05:25 1016 30 845 24.95 -7.2 19 65 -12.7 9.1
05:30 1016 30 845 24.95 -7 19.4 65 -12.4 9.6
05:35 1016 30 845 24.95 -7 19.5 66 -12.2 10
05:40 1016 30 845 24.95 -6.9 19.5 66 -12.3 9.9
05:45 1016 30 845 24.95 -6.9 19.6 65 -12.4 9.7
05:50 1016 30 845 24.95 -6.9 19.6 64 -12.6 9.3
05:55 1016 30 845 24.95 -6.9 19.5 64 -12.7 9.2
06:00 1016 30 845 24.95 -7 19.4 64 -12.7 9.1
06:05 1016 30 845 24.95 -7 19.4 63 -12.9 8.8
06:10 1016 30 845 24.95 -6.7 20 62 -12.8 9
06:15 1016 30 845 24.95 -6.5 20.3 62 -12.6 9.3
06:20 1016 30 845 24.95 -6.1 21 60 -12.6 9.3
06:25 1016 30 845 24.95 -5.7 21.8 59 -12.6 9.4
06:30 1016 30 845 24.95 -5.7 21.8 62 -11.8 10.8
06:35 1016 30 845 24.95 -6.1 21.1 65 -11.6 11.1
06:40 1016 30 845 24.95 -6.3 20.7 67 -11.4 11.5
06:45 1016 30 845 24.95 -6.5 20.3 66 -11.8 10.8
06:50 1016 30 845 24.95 -6.7 20 68 -11.6 11.1
06:55 1016 30 845 24.95 -6.8 19.8 70 -11.4 11.5
07:00 1016 30 845 24.95 -6.9 19.6 71 -11.4 11.6
07:05 1016 30 845 24.95 -7 19.4 68 -11.9 10.6
07:10 1016 30 845 24.95 -7 19.4 69 -11.8 10.8
07:15 1016 30 845 24.95 -6.9 19.6 65 -12.3 9.8
07:20 1016 30 845 24.95 -6.8 19.8 64 -12.5 9.5
07:25 1016 30 845 24.95 -6.6 20.1 63 -12.5 9.5
07:30 1016 30 845 24.95 -6.5 20.3 62 -12.7 9.2
07:35 1016 30 845 24.95 -6.6 20.2 62 -12.6 9.3
07:40 1016 30 845 24.95 -6.7 19.9 62 -12.8 9
07:45 1016 30 846 24.98 -6.9 19.7 63 -12.7 9.1
07:50 1016 30 846 24.98 -6.9 19.5 63 -12.9 8.8
07:55 1017 30.03 846 24.98 -7 19.5 62 -13.1 8.4
08:00 1017 30.03 846 24.98 -7.1 19.2 62 -13.2 8.2
08:05 1017 30.03 846 24.98 -7.1 19.2 62 -13.3 8.1
08:10 1017 30.03 846 24.98 -7.1 19.2 63 -13 8.7
08:15 1017 30.03 846 24.98 -6.9 19.5 62 -13 8.6
08:20 1017 30.03 846 24.98 -7 19.4 62 -13 8.5
08:25 1017 30.03 846 24.98 -7 19.4 64 -12.6 9.2
08:30 1017 30.03 847 25.01 -7 19.4 66 -12.4 9.7
08:35 1017 30.03 847 25.01 -6.9 19.6 68 -11.9 10.5
08:40 1017 30.03 847 25.01 -6.7 19.9 68 -11.7 10.9
08:45 1017 30.03 847 25.01 -6.7 19.9 69 -11.5 11.3
08:50 1017 30.03 847 25.01 -6.8 19.8 68 -11.7 10.9
08:55 1017 30.03 847 25.01 -6.8 19.8 69 -11.5 11.3
09:00 1017 30.03 847 25.01 -6.7 19.9 69 -11.4 11.4
09:05 1018 30.06 847 25.01 -6.7 19.9 70 -11.3 11.7
09:10 1018 30.06 847 25.01 -6.6 20.1 69 -11.4 11.5
09:15 1018 30.06 847 25.01 -6.7 20 69 -11.4 11.5
09:20 1018 30.06 847 25.01 -6.8 19.7 71 -11.3 11.7
09:25 1018 30.06 847 25.01 -6.7 19.9 71 -11.2 11.8
09:30 1018 30.06 847 25.01 -6.6 20 70 -11.3 11.7
09:35 1018 30.06 847 25.01 -6.7 20 71 -11.2 11.9
09:40 1018 30.06 847 25.01 -6.6 20.2 70 -11.1 12
09:45 1018 30.06 847 25.01 -6.5 20.3 70 -11.1 12.1
09:50 1018 30.06 847 25.01 -6.5 20.3 70 -11.1 12
09:55 1018 30.06 847 25.01 -6.6 20.2 71 -11 12.2
10:00 1018 30.06 847 25.01 -6.6 20.2 72 -10.9 12.4
10:05 1018 30.06 847 25.01 -6.6 20.2 71 -10.9 12.4
10:10 1018 30.06 847 25.01 -6.5 20.3 72 -10.8 12.6
10:15 1018 30.06 847 25.01 -6.4 20.5 72 -10.7 12.8
10:20 1018 30.06 848 25.04 -6.3 20.6 71 -10.7 12.7
10:25 1018 30.06 848 25.04 -6.6 20.2 68 -11.6 11.2
10:30 1018 30.06 848 25.04 -6.9 19.6 70 -11.5 11.4
10:35 1018 30.06 848 25.04 -6.7 19.9 70 -11.4 11.5
10:40 1018 30.06 848 25.04 -6.6 20.2 69 -11.3 11.7
10:45 1018 30.06 848 25.04 -6.5 20.4 68 -11.5 11.3
10:50 1019 30.09 848 25.04 -6.3 20.7 67 -11.5 11.2
10:55 1019 30.09 848 25.04 -6.1 21.1 65 -11.7 11
11:00 1019 30.09 848 25.04 -5.9 21.4 64 -11.7 11
11:05 1019 30.09 848 25.04 -5.9 21.4 61 -12.2 10
11:10 1019 30.09 848 25.04 -5.9 21.3 61 -12.2 10
11:15 1019 30.09 848 25.04 -5.9 21.4 65 -11.5 11.3
11:20 1019 30.09 848 25.04 -5.9 21.3 68 -11 12.2
11:25 1019 30.09 848 25.04 -6 21.1 69 -10.8 12.5
11:30 1019 30.09 848 25.04 -6 21.2 70 -10.7 12.8
11:35 1019 30.09 848 25.04 -6 21.1 72 -10.3 13.4
11:40 1019 30.09 848 25.04 -6 21.1 72 -10.4 13.3
11:45 1019 30.09 848 25.04 -5.8 21.5 71 -10.4 13.4
11:50 1019 30.09 848 25.04 -5.6 21.9 70 -10.3 13.5
11:55 1019 30.09 848 25.04 -5.4 22.4 68 -10.4 13.3
12:00 1019 30.09 849 25.07 -5 23.1 65 -10.5 13.1
12:05 1019 30.09 849 25.07 -4.9 23.2 66 -10.4 13.4
12:10 1019 30.09 848 25.04 -4.9 23.2 66 -10.3 13.5
12:15 1019 30.09 849 25.07 -4.8 23.3 66 -10.3 13.5
12:20 1019 30.09 848 25.04 -4.8 23.3 67 -10.1 13.8
12:25 1019 30.09 848 25.04 -4.9 23.1 68 -9.9 14.2
12:30 1019 30.09 849 25.07 -4.9 23.2 70 -9.6 14.7
12:35 1019 30.09 849 25.07 -5.3 22.4 73 -9.5 14.9
12:40 1019 30.09 849 25.07 -5.7 21.7 75 -9.4 15
12:45 1019 30.09 849 25.07 -5.4 22.3 74 -9.3 15.2
12:50 1019 30.09 848 25.04 -5.3 22.4 73 -9.4 15
12:55 1019 30.09 848 25.04 -5.6 22 78 -8.9 16
13:00 1019 30.09 848 25.04 -5.9 21.4 78 -9.2 15.5
13:05 1019 30.09 848 25.04 -6.1 21 80 -9.1 15.6
13:10 1019 30.09 849 25.07 -6 21.2 81 -8.8 16.2
13:15 1019 30.09 849 25.07 -5.7 21.8 78 -8.8 16.1
13:20 1019 30.09 849 25.07 -5.8 21.6 78 -9 15.8
13:25 1019 30.09 849 25.07 -5.5 22.2 77 -8.9 16
13:30 1019 30.09 849 25.07 -5.7 21.7 80 -8.7 16.4
13:35 1019 30.09 849 25.07 -6.1 21 81 -8.8 16.1
13:40 1019 30.09 849 25.07 -6 21.2 80 -8.9 16
13:45 1019 30.09 849 25.07 -5.8 21.6 80 -8.6 16.4
13:50 1020 30.12 849 25.07 -5.5 22.2 78 -8.7 16.3
13:55 1020 30.12 849 25.07 -5.5 22.2 76 -9.1 15.6
14:00 1020 30.12 849 25.07 -5.2 22.6 76 -8.8 16.1
14:05 1020 30.12 849 25.07 -5.1 22.8 74 -9 15.8
14:10 1020 30.12 849 25.07 -4.9 23.2 73 -9 15.7
14:15 1020 30.12 849 25.07 -4.8 23.3 73 -8.9 16.1
14:20 1020 30.12 849 25.07 -5.2 22.7 75 -8.9 16
14:25 1020 30.12 849 25.07 -5 23 74 -9 15.8
14:30 1020 30.12 849 25.07 -4.6 23.7 72 -8.8 16.1
14:35 1020 30.12 849 25.07 -4.3 24.2 71 -8.8 16.2
14:40 1020 30.12 849 25.07 -4.4 24 72 -8.8 16.2
14:45 1020 30.12 849 25.07 -4.3 24.3 69 -9 15.7
14:50 1020 30.12 849 25.07 -4.2 24.5 68 -9.1 15.5
14:55 1020 30.12 849 25.07 -4.2 24.4 68 -9.3 15.2
15:00 1020 30.12 849 25.07 -4.6 23.7 70 -9.4 15.2
15:05 1020 30.12 849 25.07 -4.3 24.2 68 -9.4 15.1
15:10 1020 30.12 849 25.07 -4.2 24.4 67 -9.5 15
15:15 1020 30.12 849 25.07 -4.2 24.4 68 -9.3 15.3
15:20 1020 30.12 849 25.07 -4 24.7 67 -9.3 15.3
15:25 1020 30.12 849 25.07 -4.1 24.7 68 -9.2 15.4
15:30 1020 30.12 849 25.07 -4.2 24.5 69 -9 15.9
15:35 1020 30.12 849 25.07 -4.3 24.3 73 -8.5 16.8
15:40 1020 30.12 849 25.07 -4.7 23.5 76 -8.4 16.9
15:45 1020 30.12 849 25.07 -4.7 23.5 76 -8.4 16.9
15:50 1020 30.12 849 25.07 -4.8 23.3 78 -8.2 17.3
15:55 1020 30.12 849 25.07 -4.6 23.7 75 -8.4 16.9
16:00 1020 30.12 849 25.07 -4.6 23.7 75 -8.4 16.9
16:05 1020 30.12 849 25.07 -4.7 23.6 75 -8.5 16.8
16:10 1020 30.12 849 25.07 -4.7 23.5 76 -8.4 16.9
16:15 1020 30.12 849 25.07 -4.7 23.5 76 -8.3 17
16:20 1020 30.12 849 25.07 -4.9 23.3 77 -8.4 16.9
16:25 1020 30.12 849 25.07 -4.9 23.1 77 -8.3 17.1
16:30 1020 30.12 849 25.07 -5 23.1 77 -8.4 16.9
16:35 1020 30.12 849 25.07 -5.1 22.9 78 -8.3 17
16:40 1020 30.12 849 25.07 -5.2 22.6 80 -8.2 17.2
16:45 1020 30.12 850 25.1 -5.3 22.4 80 -8.3 17.1
16:50 1020 30.12 850 25.1 -5.3 22.5 80 -8.3 17.1
16:55 1021 30.15 850 25.1 -5.3 22.5 80 -8.2 17.3
17:00 1021 30.15 850 25.1 -5.4 22.3 81 -8.1 17.4
17:05 1021 30.15 850 25.1 -5.4 22.3 81 -8.2 17.3
17:10 1021 30.15 850 25.1 -5.6 21.9 82 -8.1 17.4
17:15 1021 30.15 850 25.1 -6 21.1 84 -8.3 17
17:20 1021 30.15 850 25.1 -6.1 20.9 84 -8.4 16.9
17:25 1021 30.15 850 25.1 -6.2 20.8 85 -8.3 17.1
17:30 1021 30.15 850 25.1 -6.2 20.9 84 -8.4 16.9
17:35 1021 30.15 850 25.1 -6.1 21 85 -8.3 17
17:40 1021 30.15 850 25.1 -6 21.2 85 -8.2 17.2
17:45 1021 30.15 850 25.1 -5.9 21.3 84 -8.2 17.2
17:50 1021 30.15 851 25.13 -5.9 21.4 84 -8.2 17.2
17:55 1021 30.15 851 25.13 -5.8 21.6 83 -8.2 17.2
18:00 1022 30.18 851 25.13 -5.7 21.7 83 -8.2 17.3
18:05 1022 30.18 851 25.13 -5.7 21.8 82 -8.2 17.2
18:10 1022 30.18 851 25.13 -5.6 21.9 82 -8.2 17.2
18:15 1022 30.18 851 25.13 -5.6 21.9 82 -8.2 17.3
18:20 1022 30.18 851 25.13 -5.6 21.8 83 -8.1 17.3
18:25 1022 30.18 851 25.13 -5.6 21.8 83 -8.1 17.4
18:30 1022 30.18 851 25.13 -5.7 21.8 84 -8.1 17.5
18:35 1022 30.18 851 25.13 -5.8 21.6 85 -8 17.6
18:40 1022 30.18 851 25.13 -5.8 21.5 84 -8.1 17.5
18:45 1022 30.18 852 25.16 -5.8 21.5 85 -8 17.6
18:50 1022 30.18 852 25.16 -5.8 21.6 84 -8.1 17.4
18:55 1022 30.18 852 25.16 -5.8 21.5 84 -8.1 17.4
19:00 1022 30.18 852 25.16 -5.7 21.7 83 -8.1 17.4
19:05 1022 30.18 852 25.16 -5.7 21.7 83 -8.1 17.4
19:10 1022 30.18 852 25.16 -5.7 21.7 83 -8.1 17.4
19:15 1022 30.18 852 25.16 -5.7 21.8 84 -8 17.6
19:20 1023 30.21 852 25.16 -5.7 21.7 84 -8 17.5
19:25 1023 30.21 852 25.16 -5.7 21.7 84 -8 17.5
19:30 1023 30.21 852 25.16 -5.7 21.7 83 -8.1 17.4
19:35 1023 30.21 852 25.16 -5.8 21.6 84 -8.1 17.4
19:40 1023 30.21 852 25.16 -5.7 21.7 84 -8.1 17.4
19:45 1023 30.21 852 25.16 -5.8 21.6 83 -8.2 17.3
19:50 1023 30.21 852 25.16 -5.7 21.7 83 -8.2 17.2
19:55 1023 30.21 852 25.16 -5.7 21.8 83 -8.2 17.3
20:00 1023 30.21 852 25.16 -6.1 21.1 85 -8.1 17.4
20:05 1023 30.21 852 25.16 -6.3 20.6 85 -8.4 16.9
20:10 1023 30.21 852 25.16 -6.3 20.6 86 -8.3 17.1
20:15 1023 30.21 852 25.16 -6.3 20.7 85 -8.4 16.8
20:20 1023 30.21 852 25.16 -6.3 20.7 85 -8.4 16.9
20:25 1023 30.21 852 25.16 -6.4 20.5 85 -8.5 16.8
20:30 1023 30.21 852 25.16 -6.5 20.3 85 -8.5 16.6
20:35 1023 30.21 852 25.16 -6.4 20.5 84 -8.6 16.4
20:40 1023 30.21 852 25.16 -6.2 20.8 84 -8.5 16.7
20:45 1023 30.21 852 25.16 -6.3 20.7 84 -8.6 16.5
20:50 1023 30.21 852 25.16 -6.2 20.8 83 -8.7 16.4
20:55 1023 30.21 852 25.16 -6.3 20.7 83 -8.7 16.4
21:00 1023 30.21 852 25.16 -6.3 20.6 83 -8.7 16.3
21:05 1023 30.21 852 25.16 -6.3 20.6 83 -8.7 16.3
21:10 1023 30.21 852 25.16 -6.4 20.5 83 -8.8 16.2
21:15 1023 30.21 852 25.16 -6.4 20.5 82 -8.9 16
21:20 1023 30.21 852 25.16 -6.4 20.6 82 -8.9 16
21:25 1023 30.21 852 25.16 -6.3 20.7 81 -9 15.9
21:30 1023 30.21 852 25.16 -6.2 20.8 82 -8.8 16.1
21:35 1023 30.21 852 25.16 -6.2 20.8 81 -8.9 15.9
21:40 1023 30.21 852 25.16 -6.2 20.9 82 -8.8 16.1
21:45 1023 30.21 852 25.16 -6.4 20.5 83 -8.8 16.1
21:50 1023 30.21 852 25.16 -6.6 20.1 83 -9 15.8
21:55 1023 30.21 852 25.16 -6.7 19.9 83 -9.1 15.6
22:00 1023 30.21 852 25.16 -6.8 19.8 83 -9.2 15.4
22:05 1023 30.21 852 25.16 -6.6 20.1 81 -9.3 15.2
22:10 1023 30.21 852 25.16 -6.5 20.4 81 -9.3 15.3
22:15 1023 30.21 852 25.16 -6.5 20.2 81 -9.3 15.3
22:20 1023 30.21 852 25.16 -6.5 20.3 81 -9.3 15.3
22:25 1023 30.21 852 25.16 -6.5 20.4 81 -9.2 15.5
22:30 1023 30.21 852 25.16 -6.5 20.2 80 -9.4 15
22:35 1023 30.21 852 25.16 -6.5 20.4 79 -9.6 14.8
22:40 1023 30.21 852 25.16 -6.5 20.3 79 -9.6 14.8
22:45 1023 30.21 852 25.16 -6.7 20 79 -9.7 14.5
22:50 1023 30.21 852 25.16 -6.7 19.9 80 -9.6 14.8
22:55 1023 30.21 852 25.16 -7.2 19.1 84 -9.5 15
23:00 1023 30.21 852 25.16 -7.5 18.4 84 -9.8 14.3
23:05 1023 30.21 852 25.16 -7.6 18.3 83 -10 14
23:10 1023 30.21 852 25.16 -7.4 18.7 80 -10.2 13.7
23:15 1023 30.21 852 25.16 -7.1 19.3 76 -10.6 12.9
23:20 1023 30.21 852 25.16 -6.9 19.6 75 -10.6 13
23:25 1023 30.21 852 25.16 -6.8 19.7 73 -10.9 12.4
23:30 1023 30.21 852 25.16 -6.6 20.1 72 -10.9 12.5
23:35 1023 30.21 852 25.16 -6.7 19.9 71 -11.1 12
23:40 1023 30.21 852 25.16 -6.5 20.3 70 -11.1 12
23:45 1023 30.21 852 25.16 -6.4 20.5 69 -11.1 12.1
23:50 1023 30.21 852 25.16 -6.7 20 71 -11.1 12.1
23:55 1023 30.21 852 25.16 -7 19.5 71 -11.3 11.6
24:00 1023 30.21 852 25.16 -7 19.4 71 -11.4 11.5